sensor_id;sensor_type;location;lat;lon;timestamp;pressure;altitude;pressure_sealevel;temperature;humidity
5651;BME280;40241;52.684;9.758;2023-09-19T00:01:57;100297.00;;;20.24;61.85
5651;BME280;40241;52.684;9.758;2023-09-19T00:04:22;100298.28;;;20.23;61.90
5651;BME280;40241;52.684;9.758;2023-09-19T00:06:54;100307.81;;;20.20;62.00
5651;BME280;40241;52.684;9.758;2023-09-19T00:09:19;100307.06;;;20.19;61.73
5651;BME280;40241;52.684;9.758;2023-09-19T00:11:44;100310.41;;;20.18;61.90
5651;BME280;40241;52.684;9.758;2023-09-19T00:14:12;100318.59;;;20.16;61.86
5651;BME280;40241;52.684;9.758;2023-09-19T00:16:39;100319.34;;;20.16;62.09
5651;BME280;40241;52.684;9.758;2023-09-19T00:19:06;100321.41;;;20.16;61.84
5651;BME280;40241;52.684;9.758;2023-09-19T00:21:32;100313.59;;;20.14;61.82
5651;BME280;40241;52.684;9.758;2023-09-19T00:23:58;100305.63;;;20.11;61.92
5651;BME280;40241;52.684;9.758;2023-09-19T00:26:23;100301.31;;;20.10;62.10
5651;BME280;40241;52.684;9.758;2023-09-19T00:28:52;100295.75;;;20.10;62.04
5651;BME280;40241;52.684;9.758;2023-09-19T00:31:17;100303.03;;;20.05;62.07
5651;BME280;40241;52.684;9.758;2023-09-19T00:33:43;100300.06;;;20.03;62.30
5651;BME280;40241;52.684;9.758;2023-09-19T00:36:08;100304.91;;;20.03;62.18
5651;BME280;40241;52.684;9.758;2023-09-19T00:38:34;100313.84;;;20.01;62.29
5651;BME280;40241;52.684;9.758;2023-09-19T00:40:59;100317.38;;;20.02;62.29
5651;BME280;40241;52.684;9.758;2023-09-19T00:43:27;100310.88;;;19.99;62.27
5651;BME280;40241;52.684;9.758;2023-09-19T00:45:56;100308.09;;;19.99;62.25
5651;BME280;40241;52.684;9.758;2023-09-19T00:48:22;100309.59;;;20.00;62.44
5651;BME280;40241;52.684;9.758;2023-09-19T00:50:48;100321.47;;;20.01;62.21
5651;BME280;40241;52.684;9.758;2023-09-19T00:53:18;100313.50;;;19.97;62.29
5651;BME280;40241;52.684;9.758;2023-09-19T00:55:46;100326.72;;;19.97;62.28
5651;BME280;40241;52.684;9.758;2023-09-19T00:58:13;100328.75;;;19.96;62.41
5651;BME280;40241;52.684;9.758;2023-09-19T01:00:40;100328.97;;;19.98;62.34
5651;BME280;40241;52.684;9.758;2023-09-19T01:03:05;100340.69;;;19.97;62.33
5651;BME280;40241;52.684;9.758;2023-09-19T01:05:31;100339.94;;;19.96;62.38
5651;BME280;40241;52.684;9.758;2023-09-19T01:07:58;100343.28;;;19.95;62.52
5651;BME280;40241;52.684;9.758;2023-09-19T01:10:24;100343.28;;;19.95;62.48
5651;BME280;40241;52.684;9.758;2023-09-19T01:13:25;100343.13;;;19.93;62.97
5651;BME280;40241;52.684;9.758;2023-09-19T01:16:27;100340.56;;;19.87;63.09
5651;BME280;40241;52.684;9.758;2023-09-19T01:22:02;100344.44;;;19.92;62.52
5651;BME280;40241;52.684;9.758;2023-09-19T01:30:22;100358.19;;;19.97;62.56
5651;BME280;40241;52.684;9.758;2023-09-19T01:32:50;100356.88;;;19.98;62.58
5651;BME280;40241;52.684;9.758;2023-09-19T01:35:18;100363.19;;;19.99;62.51
5651;BME280;40241;52.684;9.758;2023-09-19T01:37:43;100358.53;;;20.01;62.51
5651;BME280;40241;52.684;9.758;2023-09-19T01:40:14;100364.88;;;20.02;62.60
5651;BME280;40241;52.684;9.758;2023-09-19T01:43:47;100380.69;;;19.99;63.02
5651;BME280;40241;52.684;9.758;2023-09-19T01:46:01;100374.00;;;20.02;62.88
5651;BME280;40241;52.684;9.758;2023-09-19T01:51:53;100375.13;;;19.99;63.22
5651;BME280;40241;52.684;9.758;2023-09-19T01:54:28;100382.38;;;20.02;62.83
5651;BME280;40241;52.684;9.758;2023-09-19T01:57:16;100374.53;;;20.01;62.89
5651;BME280;40241;52.684;9.758;2023-09-19T01:59:52;100371.75;;;20.01;62.72
5651;BME280;40241;52.684;9.758;2023-09-19T02:02:20;100379.41;;;20.00;62.44
5651;BME280;40241;52.684;9.758;2023-09-19T02:04:48;100375.13;;;19.99;62.60
5651;BME280;40241;52.684;9.758;2023-09-19T02:07:14;100377.72;;;19.97;62.51
5651;BME280;40241;52.684;9.758;2023-09-19T02:09:40;100387.41;;;19.96;62.39
5651;BME280;40241;52.684;9.758;2023-09-19T02:12:08;100380.16;;;19.93;62.55
5651;BME280;40241;52.684;9.758;2023-09-19T02:14:34;100384.25;;;19.92;62.40
5651;BME280;40241;52.684;9.758;2023-09-19T02:17:02;100402.34;;;19.91;62.28
5651;BME280;40241;52.684;9.758;2023-09-19T02:19:28;100410.53;;;19.89;62.44
5651;BME280;40241;52.684;9.758;2023-09-19T02:21:55;100401.22;;;19.87;62.25
5651;BME280;40241;52.684;9.758;2023-09-19T02:24:20;100405.88;;;19.84;62.27
5651;BME280;40241;52.684;9.758;2023-09-19T02:26:46;100407.75;;;19.82;62.48
5651;BME280;40241;52.684;9.758;2023-09-19T02:29:12;100407.75;;;19.82;62.39
5651;BME280;40241;52.684;9.758;2023-09-19T02:31:38;100408.50;;;19.82;62.44
5651;BME280;40241;52.684;9.758;2023-09-19T02:34:04;100417.44;;;19.81;62.45
5651;BME280;40241;52.684;9.758;2023-09-19T02:36:46;100410.19;;;19.78;62.04
5651;BME280;40241;52.684;9.758;2023-09-19T02:39:11;100415.59;;;19.76;62.18
5651;BME280;40241;52.684;9.758;2023-09-19T02:41:37;100401.44;;;19.74;62.16
5651;BME280;40241;52.684;9.758;2023-09-19T02:44:03;100421.00;;;19.74;62.16
5651;BME280;40241;52.684;9.758;2023-09-19T02:46:33;100416.53;;;19.71;62.08
5651;BME280;40241;52.684;9.758;2023-09-19T02:48:59;100413.72;;;19.71;61.97
5651;BME280;40241;52.684;9.758;2023-09-19T02:51:24;100414.88;;;19.68;61.94
5651;BME280;40241;52.684;9.758;2023-09-19T02:53:50;100419.69;;;19.67;61.74
5651;BME280;40241;52.684;9.758;2023-09-19T02:56:18;100412.44;;;19.64;61.82
5651;BME280;40241;52.684;9.758;2023-09-19T02:58:43;100413.19;;;19.65;61.57
5651;BME280;40241;52.684;9.758;2023-09-19T03:01:09;100425.84;;;19.66;61.53
5651;BME280;40241;52.684;9.758;2023-09-19T03:03:36;100429.94;;;19.65;61.56
5651;BME280;40241;52.684;9.758;2023-09-19T03:06:05;100434.94;;;19.66;61.44
5651;BME280;40241;52.684;9.758;2023-09-19T03:08:31;100440.34;;;19.64;61.28
5651;BME280;40241;52.684;9.758;2023-09-19T03:10:56;100440.91;;;19.63;61.40
5651;BME280;40241;52.684;9.758;2023-09-19T03:13:21;100445.56;;;19.60;61.28
5651;BME280;40241;52.684;9.758;2023-09-19T03:15:47;100439.81;;;19.58;60.92
5651;BME280;40241;52.684;9.758;2023-09-19T03:18:14;100448.19;;;19.58;61.20
5651;BME280;40241;52.684;9.758;2023-09-19T03:20:39;100451.72;;;19.59;61.01
5651;BME280;40241;52.684;9.758;2023-09-19T03:23:05;100452.66;;;19.61;60.86
5651;BME280;40241;52.684;9.758;2023-09-19T03:25:34;100451.91;;;19.61;60.83
5651;BME280;40241;52.684;9.758;2023-09-19T03:28:01;100458.06;;;19.59;61.13
5651;BME280;40241;52.684;9.758;2023-09-19T03:30:31;100450.78;;;19.56;60.98
5651;BME280;40241;52.684;9.758;2023-09-19T03:32:56;100449.47;;;19.57;61.17
5651;BME280;40241;52.684;9.758;2023-09-19T03:35:22;100454.50;;;19.59;60.81
5651;BME280;40241;52.684;9.758;2023-09-19T03:37:47;100458.06;;;19.59;60.84
5651;BME280;40241;52.684;9.758;2023-09-19T03:40:13;100453.00;;;19.58;61.00
5651;BME280;40241;52.684;9.758;2023-09-19T03:42:41;100453.75;;;19.58;60.88
5651;BME280;40241;52.684;9.758;2023-09-19T03:45:08;100465.09;;;19.60;60.97
5651;BME280;40241;52.684;9.758;2023-09-19T03:47:38;100455.25;;;19.59;60.81
5651;BME280;40241;52.684;9.758;2023-09-19T03:50:04;100460.28;;;19.61;60.72
5651;BME280;40241;52.684;9.758;2023-09-19T03:52:30;100466.44;;;19.59;60.79
5651;BME280;40241;52.684;9.758;2023-09-19T03:54:55;100459.91;;;19.57;60.80
5651;BME280;40241;52.684;9.758;2023-09-19T03:57:20;100469.22;;;19.59;60.81
5651;BME280;40241;52.684;9.758;2023-09-19T03:59:46;100463.63;;;19.59;60.60
5651;BME280;40241;52.684;9.758;2023-09-19T04:02:12;100471.25;;;19.59;60.65
5651;BME280;40241;52.684;9.758;2023-09-19T04:04:50;100479.81;;;19.61;60.44
5651;BME280;40241;52.684;9.758;2023-09-19T04:07:16;100475.88;;;19.64;60.55
5651;BME280;40241;52.684;9.758;2023-09-19T04:09:42;100481.28;;;19.62;60.29
5651;BME280;40241;52.684;9.758;2023-09-19T04:12:07;100483.53;;;19.63;60.30
5651;BME280;40241;52.684;9.758;2023-09-19T04:14:36;100492.63;;;19.64;60.38
5651;BME280;40241;52.684;9.758;2023-09-19T04:17:01;100482.03;;;19.62;60.44
5651;BME280;40241;52.684;9.758;2023-09-19T04:19:27;100485.41;;;19.61;60.12
5651;BME280;40241;52.684;9.758;2023-09-19T04:21:52;100490.22;;;19.60;60.29
5651;BME280;40241;52.684;9.758;2023-09-19T04:24:18;100497.13;;;19.59;60.19
5651;BME280;40241;52.684;9.758;2023-09-19T04:26:45;100497.13;;;19.59;59.97
5651;BME280;40241;52.684;9.758;2023-09-19T04:29:10;100497.47;;;19.56;60.06
5651;BME280;40241;52.684;9.758;2023-09-19T04:31:36;100494.69;;;19.56;60.03
5651;BME280;40241;52.684;9.758;2023-09-19T04:34:03;100495.81;;;19.53;59.73
5651;BME280;40241;52.684;9.758;2023-09-19T04:36:28;100492.81;;;19.51;59.69
5651;BME280;40241;52.684;9.758;2023-09-19T04:38:55;100507.16;;;19.47;59.94
5651;BME280;40241;52.684;9.758;2023-09-19T04:41:20;100502.91;;;19.46;59.70
5651;BME280;40241;52.684;9.758;2023-09-19T04:43:47;100508.25;;;19.44;59.99
5651;BME280;40241;52.684;9.758;2023-09-19T04:46:12;100501.78;;;19.41;59.89
5651;BME280;40241;52.684;9.758;2023-09-19T04:48:39;100509.22;;;19.39;59.67
5651;BME280;40241;52.684;9.758;2023-09-19T04:51:06;100518.34;;;19.39;59.90
5651;BME280;40241;52.684;9.758;2023-09-19T04:53:31;100517.00;;;19.40;59.71
5651;BME280;40241;52.684;9.758;2023-09-19T04:55:56;100517.59;;;19.39;59.60
5651;BME280;40241;52.684;9.758;2023-09-19T04:58:23;100511.25;;;19.38;59.64
5651;BME280;40241;52.684;9.758;2023-09-19T05:00:48;100518.13;;;19.37;59.78
5651;BME280;40241;52.684;9.758;2023-09-19T05:03:16;100508.63;;;19.33;59.76
5651;BME280;40241;52.684;9.758;2023-09-19T05:05:42;100502.84;;;19.31;59.61
5651;BME280;40241;52.684;9.758;2023-09-19T05:08:08;100510.81;;;19.27;59.54
5651;BME280;40241;52.684;9.758;2023-09-19T05:10:35;100518.44;;;19.26;59.62
5651;BME280;40241;52.684;9.758;2023-09-19T05:13:06;100514.19;;;19.25;59.62
5651;BME280;40241;52.684;9.758;2023-09-19T05:15:33;100509.16;;;19.24;59.45
5651;BME280;40241;52.684;9.758;2023-09-19T05:17:59;100509.16;;;19.24;59.63
5651;BME280;40241;52.684;9.758;2023-09-19T05:20:25;100514.75;;;19.24;59.52
5651;BME280;40241;52.684;9.758;2023-09-19T05:25:26;100526.06;;;19.18;59.61
5651;BME280;40241;52.684;9.758;2023-09-19T05:27:56;100533.69;;;19.18;59.52
5651;BME280;40241;52.684;9.758;2023-09-19T05:30:23;100532.56;;;19.13;59.57
5651;BME280;40241;52.684;9.758;2023-09-19T05:32:48;100539.63;;;19.14;59.78
5651;BME280;40241;52.684;9.758;2023-09-19T05:35:14;100540.00;;;19.11;59.64
5651;BME280;40241;52.684;9.758;2023-09-19T05:37:39;100550.41;;;19.10;59.96
5651;BME280;40241;52.684;9.758;2023-09-19T05:40:05;100560.06;;;19.09;59.82
5651;BME280;40241;52.684;9.758;2023-09-19T05:42:32;100565.13;;;19.11;59.74
5651;BME280;40241;52.684;9.758;2023-09-19T05:44:57;100556.34;;;19.07;59.92
5651;BME280;40241;52.684;9.758;2023-09-19T05:47:23;100568.81;;;19.06;59.64
5651;BME280;40241;52.684;9.758;2023-09-19T05:49:50;100578.47;;;19.05;59.81
5651;BME280;40241;52.684;9.758;2023-09-19T05:52:15;100591.69;;;19.04;59.73
5651;BME280;40241;52.684;9.758;2023-09-19T05:54:43;100587.19;;;19.01;59.78
5651;BME280;40241;52.684;9.758;2023-09-19T05:57:08;100593.34;;;19.00;59.99
5651;BME280;40241;52.684;9.758;2023-09-19T05:59:33;100607.63;;;18.96;59.85
5651;BME280;40241;52.684;9.758;2023-09-19T06:01:59;100621.75;;;18.98;59.86
5651;BME280;40241;52.684;9.758;2023-09-19T06:04:24;100605.03;;;18.98;59.77
5651;BME280;40241;52.684;9.758;2023-09-19T06:06:50;100590.16;;;18.96;59.87
5651;BME280;40241;52.684;9.758;2023-09-19T06:09:16;100593.88;;;18.98;59.90
5651;BME280;40241;52.684;9.758;2023-09-19T06:11:42;100594.44;;;18.97;59.64
5651;BME280;40241;52.684;9.758;2023-09-19T06:14:07;100590.69;;;18.94;59.67
5651;BME280;40241;52.684;9.758;2023-09-19T06:16:35;100577.50;;;18.95;59.86
5651;BME280;40241;52.684;9.758;2023-09-19T06:19:01;100589.59;;;18.97;59.62
5651;BME280;40241;52.684;9.758;2023-09-19T06:21:27;100584.22;;;18.99;59.62
5651;BME280;40241;52.684;9.758;2023-09-19T06:23:55;100584.97;;;19.00;59.54
5651;BME280;40241;52.684;9.758;2023-09-19T06:26:23;100582.56;;;19.04;59.58
5651;BME280;40241;52.684;9.758;2023-09-19T06:28:48;100592.59;;;19.07;59.69
5651;BME280;40241;52.684;9.758;2023-09-19T06:31:14;100593.53;;;19.09;59.56
5651;BME280;40241;52.684;9.758;2023-09-19T06:33:39;100586.47;;;19.08;59.39
5651;BME280;40241;52.684;9.758;2023-09-19T06:36:05;100590.56;;;19.07;59.40
5651;BME280;40241;52.684;9.758;2023-09-19T06:38:31;100599.88;;;19.10;59.50
5651;BME280;40241;52.684;9.758;2023-09-19T06:40:59;100602.84;;;19.12;59.17
5651;BME280;40241;52.684;9.758;2023-09-19T06:43:26;100602.50;;;19.15;59.53
5651;BME280;40241;52.684;9.758;2023-09-19T06:45:51;100603.59;;;19.20;59.23
5651;BME280;40241;52.684;9.758;2023-09-19T06:48:17;100599.53;;;19.21;59.16
5651;BME280;40241;52.684;9.758;2023-09-19T06:50:43;100616.09;;;19.26;59.09
5651;BME280;40241;52.684;9.758;2023-09-19T06:53:09;100611.09;;;19.32;58.94
5651;BME280;40241;52.684;9.758;2023-09-19T06:55:35;100597.00;;;19.38;58.64
5651;BME280;40241;52.684;9.758;2023-09-19T06:58:02;100614.84;;;19.42;58.71
5651;BME280;40241;52.684;9.758;2023-09-19T07:00:27;100610.97;;;19.46;58.68
5651;BME280;40241;52.684;9.758;2023-09-19T07:03:01;100606.50;;;19.50;58.28
5651;BME280;40241;52.684;9.758;2023-09-19T07:05:30;100619.34;;;19.53;58.59
5651;BME280;40241;52.684;9.758;2023-09-19T07:07:56;100618.06;;;19.54;58.37
5651;BME280;40241;52.684;9.758;2023-09-19T07:10:24;100619.34;;;19.53;58.47
5651;BME280;40241;52.684;9.758;2023-09-19T07:13:01;100613.41;;;19.57;58.01
5651;BME280;40241;52.684;9.758;2023-09-19T07:15:28;100626.78;;;19.58;58.19
5651;BME280;40241;52.684;9.758;2023-09-19T07:17:55;100616.75;;;19.63;58.28
5651;BME280;40241;52.684;9.758;2023-09-19T07:20:21;100625.13;;;19.63;57.95
5651;BME280;40241;52.684;9.758;2023-09-19T07:22:48;100634.97;;;19.64;57.89
5651;BME280;40241;52.684;9.758;2023-09-19T07:25:15;100630.34;;;19.66;57.75
5651;BME280;40241;52.684;9.758;2023-09-19T07:27:41;100644.47;;;19.68;57.52
5651;BME280;40241;52.684;9.758;2023-09-19T07:30:07;100645.78;;;19.67;57.47
5651;BME280;40241;52.684;9.758;2023-09-19T07:32:33;100648.03;;;19.69;57.58
5651;BME280;40241;52.684;9.758;2023-09-19T07:35:01;100642.63;;;19.71;57.44
5651;BME280;40241;52.684;9.758;2023-09-19T07:37:27;100645.59;;;19.73;57.29
5651;BME280;40241;52.684;9.758;2023-09-19T07:39:52;100651.38;;;19.75;57.05
5651;BME280;40241;52.684;9.758;2023-09-19T07:42:17;100657.16;;;19.77;56.97
5651;BME280;40241;52.684;9.758;2023-09-19T07:44:43;100654.34;;;19.77;57.09
5651;BME280;40241;52.684;9.758;2023-09-19T07:47:13;100658.09;;;19.79;56.88
5651;BME280;40241;52.684;9.758;2023-09-19T07:49:39;100667.97;;;19.80;56.72
5651;BME280;40241;52.684;9.758;2023-09-19T07:52:04;100662.19;;;19.86;56.73
5651;BME280;40241;52.684;9.758;2023-09-19T07:54:29;100672.25;;;19.89;56.65
5651;BME280;40241;52.684;9.758;2023-09-19T07:57:01;100672.25;;;19.89;56.35
5651;BME280;40241;52.684;9.758;2023-09-19T07:59:26;100669.28;;;19.87;56.29
5651;BME280;40241;52.684;9.758;2023-09-19T08:01:52;100671.31;;;19.86;56.13
5651;BME280;40241;52.684;9.758;2023-09-19T08:04:17;100668.16;;;19.90;55.99
5651;BME280;40241;52.684;9.758;2023-09-19T08:06:44;100666.13;;;19.98;56.19
5651;BME280;40241;52.684;9.758;2023-09-19T08:09:10;100668.53;;;20.01;56.01
5651;BME280;40241;52.684;9.758;2023-09-19T08:11:36;100675.06;;;20.04;55.91
5651;BME280;40241;52.684;9.758;2023-09-19T08:14:02;100677.66;;;20.09;55.79
5651;BME280;40241;52.684;9.758;2023-09-19T08:16:27;100679.34;;;20.20;55.91
5651;BME280;40241;52.684;9.758;2023-09-19T08:18:52;100661.66;;;20.25;55.39
5651;BME280;40241;52.684;9.758;2023-09-19T08:21:22;100668.19;;;20.28;55.40
5651;BME280;40241;52.684;9.758;2023-09-19T08:23:48;100666.91;;;20.29;55.17
5651;BME280;40241;52.684;9.758;2023-09-19T08:26:14;100666.34;;;20.30;55.17
5651;BME280;40241;52.684;9.758;2023-09-19T08:28:39;100683.47;;;20.34;55.09
5651;BME280;40241;52.684;9.758;2023-09-19T08:31:07;100657.38;;;20.39;55.04
5651;BME280;40241;52.684;9.758;2023-09-19T08:33:36;100670.63;;;20.46;54.83
5651;BME280;40241;52.684;9.758;2023-09-19T08:36:03;100679.38;;;20.50;54.74
5651;BME280;40241;52.684;9.758;2023-09-19T08:38:31;100663.53;;;20.53;54.51
5651;BME280;40241;52.684;9.758;2023-09-19T08:40:58;100668.34;;;20.60;54.56
5651;BME280;40241;52.684;9.758;2023-09-19T08:43:27;100669.25;;;20.70;54.52
5651;BME280;40241;52.684;9.758;2023-09-19T08:45:58;100683.97;;;20.78;53.70
5651;BME280;40241;52.684;9.758;2023-09-19T08:48:29;100680.06;;;20.81;54.24
5651;BME280;40241;52.684;9.758;2023-09-19T08:53:46;100701.63;;;20.96;53.41
5651;BME280;40241;52.684;9.758;2023-09-19T08:56:17;100689.31;;;20.99;53.17
5651;BME280;40241;52.684;9.758;2023-09-19T08:58:49;100692.47;;;21.03;53.35
5651;BME280;40241;52.684;9.758;2023-09-19T09:01:17;100687.03;;;21.12;53.79
5651;BME280;40241;52.684;9.758;2023-09-19T09:03:50;100678.06;;;21.21;53.44
5651;BME280;40241;52.684;9.758;2023-09-19T09:06:16;100692.06;;;21.21;53.16
5651;BME280;40241;52.684;9.758;2023-09-19T09:08:44;100691.13;;;21.26;53.36
5651;BME280;40241;52.684;9.758;2023-09-19T09:11:10;100686.63;;;21.31;52.88
5651;BME280;40241;52.684;9.758;2023-09-19T09:13:36;100689.06;;;21.27;52.86
5651;BME280;40241;52.684;9.758;2023-09-19T09:16:02;100692.97;;;21.24;52.59
5651;BME280;40241;52.684;9.758;2023-09-19T09:18:28;100694.84;;;21.29;52.68
5651;BME280;40241;52.684;9.758;2023-09-19T09:20:57;100695.94;;;21.33;52.45
5651;BME280;40241;52.684;9.758;2023-09-19T09:23:22;100694.06;;;21.36;52.19
5651;BME280;40241;52.684;9.758;2023-09-19T09:25:49;100694.94;;;21.46;52.18
5651;BME280;40241;52.684;9.758;2023-09-19T09:28:33;100691.38;;;21.53;52.14
5651;BME280;40241;52.684;9.758;2023-09-19T09:31:01;100695.63;;;21.54;51.72
5651;BME280;40241;52.684;9.758;2023-09-19T09:33:28;100692.84;;;21.54;51.80
5651;BME280;40241;52.684;9.758;2023-09-19T09:35:55;100694.69;;;21.59;51.62
5651;BME280;40241;52.684;9.758;2023-09-19T09:38:44;100697.47;;;21.59;50.60
5651;BME280;40241;52.684;9.758;2023-09-19T09:41:11;100697.88;;;21.55;51.40
5651;BME280;40241;52.684;9.758;2023-09-19T09:43:41;100701.97;;;21.54;51.59
5651;BME280;40241;52.684;9.758;2023-09-19T09:49:03;100712.44;;;21.54;50.15
5651;BME280;40241;52.684;9.758;2023-09-19T09:52:05;100723.63;;;21.54;51.52
5651;BME280;40241;52.684;9.758;2023-09-19T09:54:37;100708.16;;;21.53;51.19
5651;BME280;40241;52.684;9.758;2023-09-19T09:57:10;100709.81;;;21.56;50.56
5651;BME280;40241;52.684;9.758;2023-09-19T09:59:56;100713.16;;;21.62;50.88
5651;BME280;40241;52.684;9.758;2023-09-19T10:02:37;100714.06;;;21.64;51.22
5651;BME280;40241;52.684;9.758;2023-09-19T10:05:18;100716.66;;;21.70;50.71
5651;BME280;40241;52.684;9.758;2023-09-19T10:07:54;100712.19;;;21.67;50.92
5651;BME280;40241;52.684;9.758;2023-09-19T10:10:37;100712.00;;;21.65;50.30
5651;BME280;40241;52.684;9.758;2023-09-19T10:13:10;100704.69;;;21.70;51.16
5651;BME280;40241;52.684;9.758;2023-09-19T10:15:39;100715.16;;;21.69;50.93
5651;BME280;40241;52.684;9.758;2023-09-19T10:18:19;100707.91;;;21.66;50.90
5651;BME280;40241;52.684;9.758;2023-09-19T10:20:46;100728.81;;;21.65;50.94
5651;BME280;40241;52.684;9.758;2023-09-19T10:23:14;100711.44;;;21.67;50.73
5651;BME280;40241;52.684;9.758;2023-09-19T10:25:47;100710.31;;;21.70;50.80
5651;BME280;40241;52.684;9.758;2023-09-19T10:28:14;100709.69;;;21.79;50.83
5651;BME280;40241;52.684;9.758;2023-09-19T10:30:44;100708.53;;;21.89;50.27
5651;BME280;40241;52.684;9.758;2023-09-19T10:33:13;100708.69;;;21.91;50.27
5651;BME280;40241;52.684;9.758;2023-09-19T10:35:43;100715.22;;;21.94;50.29
5651;BME280;40241;52.684;9.758;2023-09-19T10:38:10;100714.84;;;21.97;50.32
5651;BME280;40241;52.684;9.758;2023-09-19T10:40:37;100721.13;;;22.05;50.25
5651;BME280;40241;52.684;9.758;2023-09-19T10:43:06;100727.13;;;22.02;49.96
5651;BME280;40241;52.684;9.758;2023-09-19T10:45:35;100722.25;;;22.02;50.02
5651;BME280;40241;52.684;9.758;2023-09-19T10:48:04;100715.19;;;22.01;49.77
5651;BME280;40241;52.684;9.758;2023-09-19T10:50:41;100713.66;;;22.08;49.33
5651;BME280;40241;52.684;9.758;2023-09-19T10:53:11;100713.56;;;22.15;49.99
5651;BME280;40241;52.684;9.758;2023-09-19T10:55:37;100714.63;;;22.27;49.59
5651;BME280;40241;52.684;9.758;2023-09-19T10:58:04;100719.63;;;22.29;49.65
5651;BME280;40241;52.684;9.758;2023-09-19T11:00:58;100713.63;;;22.32;48.53
5651;BME280;40241;52.684;9.758;2023-09-19T11:03:38;100718.72;;;22.26;49.60
5651;BME280;40241;52.684;9.758;2023-09-19T11:06:17;100713.53;;;22.23;49.12
5651;BME280;40241;52.684;9.758;2023-09-19T11:09:02;100709.22;;;22.22;48.72
5651;BME280;40241;52.684;9.758;2023-09-19T11:14:17;100716.97;;;22.38;48.60
5651;BME280;40241;52.684;9.758;2023-09-19T11:30:42;100706.91;;;22.53;48.70
5651;BME280;40241;52.684;9.758;2023-09-19T11:33:30;100710.75;;;22.65;47.61
5651;BME280;40241;52.684;9.758;2023-09-19T11:36:15;100718.50;;;22.74;47.54
5651;BME280;40241;52.684;9.758;2023-09-19T11:46:26;100707.88;;;22.89;47.83
5651;BME280;40241;52.684;9.758;2023-09-19T11:48:53;100715.47;;;22.96;47.73
5651;BME280;40241;52.684;9.758;2023-09-19T11:51:21;100714.00;;;22.95;47.77
5651;BME280;40241;52.684;9.758;2023-09-19T11:53:57;100712.44;;;23.02;47.64
5651;BME280;40241;52.684;9.758;2023-09-19T11:56:26;100706.97;;;23.04;47.24
5651;BME280;40241;52.684;9.758;2023-09-19T11:58:54;100710.13;;;23.08;47.47
5651;BME280;40241;52.684;9.758;2023-09-19T12:01:32;100720.84;;;23.19;46.81
5651;BME280;40241;52.684;9.758;2023-09-19T12:04:01;100709.50;;;23.27;46.90
5651;BME280;40241;52.684;9.758;2023-09-19T12:06:28;100713.06;;;23.27;47.07
5651;BME280;40241;52.684;9.758;2023-09-19T12:09:01;100710.16;;;23.18;47.36
5651;BME280;40241;52.684;9.758;2023-09-19T12:11:32;100706.66;;;23.17;47.28
5651;BME280;40241;52.684;9.758;2023-09-19T12:14:02;100699.28;;;23.22;47.28
5651;BME280;40241;52.684;9.758;2023-09-19T12:16:27;100687.75;;;23.35;47.02
5651;BME280;40241;52.684;9.758;2023-09-19T12:18:56;100704.41;;;23.33;46.32
5651;BME280;40241;52.684;9.758;2023-09-19T12:21:26;100695.22;;;23.32;46.23
5651;BME280;40241;52.684;9.758;2023-09-19T12:24:11;100686.72;;;23.40;45.75
5651;BME280;40241;52.684;9.758;2023-09-19T12:26:43;100701.06;;;23.61;45.55
5651;BME280;40241;52.684;9.758;2023-09-19T12:29:13;100693.25;;;23.69;45.33
5651;BME280;40241;52.684;9.758;2023-09-19T12:31:53;100694.47;;;23.75;45.12
5651;BME280;40241;52.684;9.758;2023-09-19T12:34:31;100692.28;;;23.83;45.23
5651;BME280;40241;52.684;9.758;2023-09-19T12:39:30;100674.84;;;23.85;45.62
5651;BME280;40241;52.684;9.758;2023-09-19T12:41:56;100684.59;;;23.84;45.61
5651;BME280;40241;52.684;9.758;2023-09-19T12:44:21;100679.59;;;23.92;45.57
5651;BME280;40241;52.684;9.758;2023-09-19T12:46:50;100683.09;;;24.10;45.66
5651;BME280;40241;52.684;9.758;2023-09-19T12:49:19;100672.78;;;24.22;45.20
5651;BME280;40241;52.684;9.758;2023-09-19T12:51:47;100681.22;;;24.22;45.34
5651;BME280;40241;52.684;9.758;2023-09-19T12:54:13;100672.09;;;24.31;45.69
5651;BME280;40241;52.684;9.758;2023-09-19T12:56:45;100680.97;;;24.37;43.50
5651;BME280;40241;52.684;9.758;2023-09-19T12:59:13;100695.28;;;24.22;44.83
5651;BME280;40241;52.684;9.758;2023-09-19T13:01:40;100683.00;;;24.17;45.00
5651;BME280;40241;52.684;9.758;2023-09-19T13:06:49;100684.38;;;23.99;44.23
5651;BME280;40241;52.684;9.758;2023-09-19T13:09:16;100674.78;;;24.02;45.20
5651;BME280;40241;52.684;9.758;2023-09-19T13:11:42;100671.28;;;24.21;45.00
5651;BME280;40241;52.684;9.758;2023-09-19T13:14:28;100673.84;;;24.36;44.05
5651;BME280;40241;52.684;9.758;2023-09-19T13:17:04;100666.91;;;24.37;43.81
5651;BME280;40241;52.684;9.758;2023-09-19T13:22:44;100666.69;;;24.06;43.52
5651;BME280;40241;52.684;9.758;2023-09-19T13:25:18;100658.63;;;24.03;44.90
5651;BME280;40241;52.684;9.758;2023-09-19T13:27:45;100654.97;;;24.10;45.04
5651;BME280;40241;52.684;9.758;2023-09-19T13:30:14;100666.72;;;24.25;44.94
5651;BME280;40241;52.684;9.758;2023-09-19T13:32:39;100658.88;;;24.33;45.13
5651;BME280;40241;52.684;9.758;2023-09-19T13:35:07;100651.19;;;24.34;45.34
5651;BME280;40241;52.684;9.758;2023-09-19T13:37:36;100664.50;;;24.24;44.85
5651;BME280;40241;52.684;9.758;2023-09-19T13:40:07;100658.00;;;24.21;45.25
5651;BME280;40241;52.684;9.758;2023-09-19T13:42:33;100659.03;;;24.26;45.10
5651;BME280;40241;52.684;9.758;2023-09-19T13:44:58;100652.69;;;24.35;44.83
5651;BME280;40241;52.684;9.758;2023-09-19T13:47:24;100646.34;;;24.44;44.76
5651;BME280;40241;52.684;9.758;2023-09-19T13:49:51;100663.94;;;24.35;44.55
5651;BME280;40241;52.684;9.758;2023-09-19T13:52:21;100648.25;;;24.32;44.58
5651;BME280;40241;52.684;9.758;2023-09-19T13:54:49;100647.22;;;24.46;44.96
5651;BME280;40241;52.684;9.758;2023-09-19T13:57:15;100654.47;;;24.49;44.49
5651;BME280;40241;52.684;9.758;2023-09-19T13:59:42;100649.47;;;24.48;44.64
5651;BME280;40241;52.684;9.758;2023-09-19T14:02:07;100645.91;;;24.57;44.85